createdAt,value
2019-01-27T00:02:17.355Z,98.70
2019-01-27T00:04:46.524Z,98.70
2019-01-27T00:07:15.623Z,98.60
2019-01-27T00:09:44.754Z,98.70
2019-01-27T00:12:13.831Z,98.50
2019-01-27T00:14:42.946Z,98.40
2019-01-27T00:17:12.052Z,98.10
2019-01-27T00:19:41.434Z,97.80
2019-01-27T00:22:10.528Z,97.80
2019-01-27T00:24:39.639Z,97.80
2019-01-27T00:27:08.738Z,97.70
2019-01-27T00:29:37.840Z,97.50
2019-01-27T00:32:06.971Z,97.30
2019-01-27T00:34:36.075Z,97.30
2019-01-27T00:37:05.175Z,97.60
2019-01-27T00:39:34.292Z,97.10
2019-01-27T00:42:03.389Z,97.10
2019-01-27T00:44:32.497Z,97.00
2019-01-27T00:47:01.605Z,97.10
2019-01-27T00:49:30.696Z,97.20
2019-01-27T00:51:59.792Z,97.20
2019-01-27T00:54:28.902Z,97.40
2019-01-27T00:56:58.000Z,97.30
2019-01-27T00:59:27.111Z,97.10
2019-01-27T01:01:56.207Z,97.20
2019-01-27T01:04:25.317Z,97.00
2019-01-27T01:06:54.412Z,97.00
2019-01-27T01:09:23.524Z,97.00
2019-01-27T01:11:53.470Z,97.30
2019-01-27T01:14:22.598Z,96.90
2019-01-27T01:16:51.696Z,96.80
2019-01-27T01:19:20.842Z,97.10
2019-01-27T01:21:49.943Z,97.40
2019-01-27T01:24:19.729Z,97.60
2019-01-27T01:26:48.831Z,97.60
2019-01-27T01:29:17.924Z,98.00
2019-01-27T01:31:47.040Z,98.00
2019-01-27T01:34:16.134Z,97.90
2019-01-27T01:36:45.249Z,97.80
2019-01-27T01:39:14.412Z,97.80
2019-01-27T01:41:43.511Z,97.80
2019-01-27T01:44:12.631Z,97.80
2019-01-27T01:46:41.734Z,98.00
2019-01-27T01:49:10.835Z,98.30
2019-01-27T01:51:39.939Z,98.30
2019-01-27T01:54:10.214Z,98.00
2019-01-27T01:56:41.015Z,98.20
2019-01-27T01:59:10.104Z,98.60
2019-01-27T02:01:39.216Z,98.30
2019-01-27T02:04:08.317Z,97.90
2019-01-27T02:06:37.431Z,97.90
2019-01-27T02:09:09.118Z,98.00
2019-01-27T02:11:38.595Z,98.40
2019-01-27T02:14:07.797Z,98.30
2019-01-27T02:16:36.924Z,98.20
2019-01-27T02:19:06.082Z,98.10
2019-01-27T02:21:35.203Z,97.90
2019-01-27T02:24:04.360Z,98.00
2019-01-27T02:26:33.459Z,97.80
2019-01-27T02:29:02.551Z,97.50
2019-01-27T02:31:31.656Z,97.60
2019-01-27T02:34:00.745Z,97.20
2019-01-27T02:36:29.848Z,96.90
2019-01-27T02:38:58.942Z,97.00
2019-01-27T02:41:28.050Z,97.10
2019-01-27T02:43:57.141Z,97.00
2019-01-27T02:46:26.265Z,97.30
2019-01-27T02:48:55.366Z,97.90
2019-01-27T02:51:24.495Z,98.30
2019-01-27T02:53:53.628Z,98.20
2019-01-27T02:56:22.771Z,98.30
2019-01-27T02:58:51.883Z,98.60
2019-01-27T03:01:21.054Z,98.90
2019-01-27T03:03:50.144Z,99.00
2019-01-27T03:06:20.890Z,98.90
2019-01-27T03:08:51.252Z,99.10
2019-01-27T03:11:20.360Z,99.30
2019-01-27T03:13:49.450Z,99.50
2019-01-27T03:16:18.635Z,99.40
2019-01-27T03:18:47.726Z,99.30
2019-01-27T03:21:16.842Z,99.20
2019-01-27T03:23:45.939Z,99.10
2019-01-27T03:26:15.044Z,98.50
2019-01-27T03:28:45.051Z,98.60
2019-01-27T03:31:14.144Z,98.50
2019-01-27T03:33:43.252Z,98.80
2019-01-27T03:36:12.347Z,98.80
2019-01-27T03:38:41.481Z,99.00
2019-01-27T03:41:10.583Z,99.20
2019-01-27T03:43:39.703Z,99.20
2019-01-27T03:46:08.789Z,99.30
2019-01-27T03:48:37.894Z,99.40
2019-01-27T03:51:07.001Z,99.40
2019-01-27T03:53:36.199Z,99.40
2019-01-27T03:56:05.724Z,99.20
2019-01-27T03:58:34.828Z,99.40
2019-01-27T04:01:04.596Z,99.60
2019-01-27T04:03:33.731Z,99.90
2019-01-27T04:06:02.802Z,99.90
2019-01-27T04:08:31.907Z,99.90
2019-01-27T04:11:01.008Z,99.90
2019-01-27T04:13:30.125Z,99.90
2019-01-27T04:15:59.223Z,99.90
2019-01-27T04:18:29.400Z,99.90
2019-01-27T04:20:58.502Z,99.90
2019-01-27T04:23:27.615Z,99.90
2019-01-27T04:25:56.708Z,99.90
2019-01-27T04:28:25.833Z,99.90
2019-01-27T04:30:54.990Z,99.90
2019-01-27T04:33:24.082Z,99.90
2019-01-27T04:35:53.180Z,99.90
2019-01-27T04:38:22.294Z,99.90
2019-01-27T04:40:51.413Z,99.90
2019-01-27T04:43:20.507Z,99.90
2019-01-27T04:45:50.672Z,99.90
2019-01-27T04:48:19.788Z,99.90
2019-01-27T04:50:48.884Z,99.90
2019-01-27T04:53:17.987Z,99.90
2019-01-27T04:55:47.124Z,99.90
2019-01-27T04:58:16.218Z,99.90
2019-01-27T05:00:45.315Z,99.90
2019-01-27T05:03:16.079Z,99.90
2019-01-27T05:05:46.160Z,99.90
2019-01-27T05:08:15.298Z,99.90
2019-01-27T05:10:44.413Z,99.90
2019-01-27T05:13:13.516Z,99.90
2019-01-27T05:15:42.620Z,99.90
2019-01-27T05:18:11.729Z,99.90
2019-01-27T05:20:40.839Z,99.90
2019-01-27T05:23:09.947Z,99.90
2019-01-27T05:25:39.047Z,99.90
2019-01-27T05:28:08.147Z,99.90
2019-01-27T05:30:37.247Z,99.90
2019-01-27T05:33:06.383Z,99.90
2019-01-27T05:35:35.508Z,99.90
2019-01-27T05:38:04.738Z,99.90
2019-01-27T05:40:33.841Z,99.90
2019-01-27T05:43:02.953Z,99.90
2019-01-27T05:45:32.058Z,99.90
2019-01-27T05:48:01.156Z,99.80
2019-01-27T05:50:30.255Z,99.80
2019-01-27T05:52:59.352Z,99.50
2019-01-27T05:55:28.545Z,99.70
2019-01-27T05:57:57.660Z,99.00
2019-01-27T06:00:29.416Z,99.10
2019-01-27T06:02:58.507Z,99.10
2019-01-27T06:05:27.615Z,99.20
2019-01-27T06:07:56.727Z,99.10
2019-01-27T06:10:27.560Z,98.80
2019-01-27T06:12:56.711Z,98.40
2019-01-27T06:15:25.832Z,98.30
2019-01-27T06:17:54.983Z,98.40
2019-01-27T06:20:24.110Z,98.30
2019-01-27T06:22:53.207Z,98.20
2019-01-27T06:25:25.666Z,98.20
2019-01-27T06:27:53.106Z,98.30
2019-01-27T06:30:24.148Z,97.90
2019-01-27T06:33:09.833Z,98.10
2019-01-27T06:35:39.513Z,98.30
2019-01-27T06:38:08.606Z,98.50
2019-01-27T06:40:37.710Z,98.40
2019-01-27T06:43:06.816Z,98.30
2019-01-27T06:45:35.933Z,98.00
2019-01-27T06:48:05.012Z,97.80
2019-01-27T06:50:34.121Z,97.90
2019-01-27T06:53:03.217Z,98.00
2019-01-27T06:55:32.321Z,98.00
2019-01-27T06:58:01.415Z,98.00
2019-01-27T07:00:34.884Z,97.90
2019-01-27T07:03:08.990Z,97.90
2019-01-27T07:05:48.500Z,97.70
2019-01-27T07:08:28.369Z,97.80
2019-01-27T07:10:59.102Z,97.70
2019-01-27T07:13:32.503Z,97.50
2019-01-27T07:16:12.292Z,97.50
2019-01-27T07:18:43.018Z,97.70
2019-01-27T07:21:22.717Z,97.50
2019-01-27T07:23:53.452Z,97.40
2019-01-27T07:26:24.309Z,97.30
2019-01-27T07:28:57.710Z,97.30
2019-01-27T07:31:40.481Z,97.20
2019-01-27T07:34:14.204Z,97.10
2019-01-27T07:36:48.830Z,97.40
2019-01-27T07:39:34.644Z,97.20
2019-01-27T07:42:17.208Z,97.30
2019-01-27T07:44:53.946Z,97.30
2019-01-27T07:47:27.639Z,97.30
2019-01-27T07:50:10.567Z,97.30
2019-01-27T07:52:41.311Z,97.10
2019-01-27T07:55:24.286Z,97.00
2019-01-27T07:57:55.987Z,96.80
2019-01-27T08:00:35.908Z,97.00
2019-01-27T08:03:18.712Z,97.00
2019-01-27T08:05:49.462Z,96.90
2019-01-27T08:08:25.844Z,96.90
2019-01-27T08:10:56.586Z,97.20
2019-01-27T08:13:39.472Z,97.20
2019-01-27T08:16:16.320Z,97.20
2019-01-27T08:18:52.791Z,97.00
2019-01-27T08:21:29.374Z,97.00
2019-01-27T08:24:00.107Z,97.10
2019-01-27T08:26:30.920Z,97.20
2019-01-27T08:29:19.830Z,97.00
2019-01-27T08:31:53.095Z,96.90
2019-01-27T08:34:40.182Z,96.60
2019-01-27T08:37:16.764Z,96.40
2019-01-27T08:39:53.434Z,96.10
2019-01-27T08:42:36.439Z,96.10
2019-01-27T08:45:10.124Z,95.90
2019-01-27T08:47:39.231Z,95.70
2019-01-27T08:50:13.972Z,95.90
2019-01-27T08:52:43.071Z,96.00
2019-01-27T08:55:13.215Z,96.30
2019-01-27T08:57:42.328Z,96.20
2019-01-27T09:00:17.447Z,96.10
2019-01-27T09:03:06.379Z,96.30
2019-01-27T09:05:40.219Z,96.50
2019-01-27T09:08:20.138Z,96.30
2019-01-27T09:11:07.552Z,96.00
2019-01-27T09:13:44.375Z,95.80
2019-01-27T09:16:21.260Z,95.70
2019-01-27T09:18:54.698Z,95.50
2019-01-27T09:21:25.441Z,95.70
2019-01-27T09:23:56.196Z,95.30
2019-01-27T09:26:26.951Z,95.40
2019-01-27T09:28:57.678Z,95.70
2019-01-27T09:31:37.202Z,96.00
2019-01-27T09:34:13.258Z,95.60
2019-01-27T09:36:49.037Z,95.90
2019-01-27T09:39:28.786Z,95.80
2019-01-27T09:42:08.714Z,95.30
2019-01-27T09:44:45.778Z,95.40
2019-01-27T09:50:22.005Z,95.90
2019-01-27T09:53:01.475Z,95.70
2019-01-27T09:55:34.887Z,95.50
2019-01-27T09:58:05.648Z,95.40
2019-01-27T10:00:37.563Z,95.60
2019-01-27T10:03:08.302Z,95.30
2019-01-27T10:05:48.132Z,95.20
2019-01-27T10:08:19.970Z,95.40
2019-01-27T10:10:50.690Z,95.20
2019-01-27T10:13:21.431Z,95.20
2019-01-27T10:15:58.299Z,95.30
2019-01-27T10:18:29.046Z,95.10
2019-01-27T10:21:05.799Z,95.40
2019-01-27T10:23:36.542Z,95.40
2019-01-27T10:26:16.304Z,95.20
2019-01-27T10:28:47.054Z,95.20
2019-01-27T10:31:30.038Z,95.00
2019-01-27T10:34:06.464Z,95.10
2019-01-27T10:36:38.167Z,95.00
2019-01-27T10:39:09.688Z,94.80
2019-01-27T10:41:52.501Z,94.60
2019-01-27T10:44:39.730Z,94.80
2019-01-27T10:47:20.397Z,94.60
2019-01-27T10:49:51.139Z,94.20
2019-01-27T10:52:34.172Z,94.30
2019-01-27T10:55:06.003Z,94.00
2019-01-27T10:57:53.398Z,93.50
2019-01-27T11:00:42.466Z,93.10
2019-01-27T11:03:16.284Z,92.30
2019-01-27T11:05:53.017Z,91.90
2019-01-27T11:08:40.194Z,92.20
2019-01-27T11:11:11.037Z,92.20
2019-01-27T11:13:58.235Z,92.10
2019-01-27T11:16:31.715Z,91.90
2019-01-27T11:19:03.700Z,92.30
2019-01-27T11:21:37.503Z,92.60
2019-01-27T11:24:17.812Z,92.20
2019-01-27T11:26:54.490Z,92.60
2019-01-27T11:29:25.371Z,92.20
2019-01-27T11:32:05.510Z,92.20
2019-01-27T11:34:39.166Z,91.90
2019-01-27T11:37:28.436Z,92.10
2019-01-27T11:40:08.399Z,91.90
2019-01-27T11:42:45.042Z,92.20
2019-01-27T11:45:15.810Z,92.50
2019-01-27T11:47:46.547Z,92.00
2019-01-27T11:50:18.350Z,91.80
2019-01-27T11:52:49.082Z,92.10
2019-01-27T11:55:18.763Z,92.70
2019-01-27T11:57:51.339Z,92.20
2019-01-27T12:00:24.307Z,92.10
2019-01-27T12:02:53.690Z,91.80
2019-01-27T12:05:23.059Z,93.50
2019-01-27T12:07:52.355Z,93.80
2019-01-27T12:10:21.559Z,94.70
2019-01-27T12:12:50.652Z,95.80
2019-01-27T12:15:21.062Z,97.10
2019-01-27T12:17:51.227Z,97.40
2019-01-27T12:20:20.396Z,97.10
2019-01-27T12:22:49.500Z,97.40
2019-01-27T12:25:18.607Z,97.60
2019-01-27T12:27:47.684Z,97.60
2019-01-27T12:30:18.639Z,97.20
2019-01-27T12:32:48.664Z,97.60
2019-01-27T12:35:17.765Z,97.40
2019-01-27T12:37:46.881Z,97.30
2019-01-27T12:40:21.281Z,97.80
2019-01-27T12:42:50.376Z,97.70
2019-01-27T12:45:19.563Z,98.30
2019-01-27T12:47:48.717Z,98.00
2019-01-27T12:50:19.348Z,98.10
2019-01-27T12:52:50.871Z,98.30
2019-01-27T12:55:19.998Z,98.60
2019-01-27T12:57:49.087Z,98.80
2019-01-27T13:00:27.055Z,98.30
2019-01-27T13:02:56.151Z,98.40
2019-01-27T13:05:25.331Z,98.60
2019-01-27T13:07:54.423Z,98.50
2019-01-27T13:10:23.523Z,98.90
2019-01-27T13:12:52.639Z,99.10
2019-01-27T13:15:22.360Z,99.10
2019-01-27T13:17:51.513Z,99.00
2019-01-27T13:20:20.645Z,99.20
2019-01-27T13:22:49.763Z,99.40
2019-01-27T13:25:20.165Z,99.10
2019-01-27T13:27:49.304Z,98.70
2019-01-27T13:30:26.418Z,98.40
2019-01-27T13:32:55.526Z,98.80
2019-01-27T13:35:24.612Z,99.00
2019-01-27T13:37:53.744Z,99.20
2019-01-27T13:40:24.395Z,99.70
2019-01-27T13:42:53.519Z,98.80
2019-01-27T13:45:25.944Z,98.70
2019-01-27T13:47:58.976Z,98.60
2019-01-27T13:50:25.851Z,98.50
2019-01-27T13:52:54.955Z,98.30
2019-01-27T13:55:29.797Z,98.20
2019-01-27T13:57:58.958Z,97.80
2019-01-27T14:00:33.900Z,98.00
2019-01-27T14:03:03.001Z,97.70
2019-01-27T14:05:32.105Z,97.70
2019-01-27T14:08:01.279Z,97.50
2019-01-27T14:10:30.937Z,97.60
2019-01-27T14:13:00.050Z,97.50
2019-01-27T14:15:31.406Z,97.50
2019-01-27T14:18:00.507Z,97.70
2019-01-27T14:26:51.111Z,97.80
2019-01-27T14:29:20.228Z,98.40
2019-01-27T14:31:49.489Z,98.10
2019-01-27T14:34:21.431Z,98.60
2019-01-27T14:36:52.313Z,98.80
2019-01-27T14:39:25.953Z,98.90
2019-01-27T14:41:55.134Z,98.90
2019-01-27T14:44:34.917Z,99.30
2019-01-27T14:47:04.027Z,99.80
2019-01-27T14:49:33.148Z,99.70
2019-01-27T14:52:02.267Z,99.90
2019-01-27T14:54:32.362Z,99.90
2019-01-27T14:57:01.627Z,99.90
2019-01-27T14:59:40.092Z,99.90
2019-01-27T15:02:16.307Z,99.90
2019-01-27T15:04:45.394Z,99.90
2019-01-27T15:07:14.494Z,99.90
2019-01-27T15:09:43.590Z,99.90
2019-01-27T15:12:12.680Z,99.90
2019-01-27T15:14:41.778Z,99.90
2019-01-27T15:17:10.866Z,99.90
2019-01-27T15:19:39.971Z,99.90
2019-01-27T15:22:09.059Z,99.90
2019-01-27T15:24:38.167Z,99.90
2019-01-27T15:27:07.262Z,99.90
2019-01-27T15:29:36.367Z,99.90
2019-01-27T15:32:06.453Z,99.90
2019-01-27T15:34:35.590Z,99.90
2019-01-27T15:37:04.727Z,99.90
2019-01-27T15:39:33.827Z,99.90
2019-01-27T15:42:10.369Z,99.90
2019-01-27T15:44:39.478Z,99.90
2019-01-27T15:47:08.616Z,99.90
2019-01-27T15:49:37.721Z,99.90
2019-01-27T15:52:06.802Z,99.90
2019-01-27T15:54:35.898Z,99.90
2019-01-27T15:57:04.997Z,99.90
2019-01-27T15:59:34.140Z,99.90
2019-01-27T16:02:04.271Z,99.90
2019-01-27T16:04:33.385Z,99.90
2019-01-27T16:07:02.505Z,99.90
2019-01-27T16:09:33.621Z,99.90
2019-01-27T16:12:02.759Z,99.90
2019-01-27T16:14:31.881Z,99.90
2019-01-27T16:17:00.991Z,99.90
2019-01-27T16:19:30.193Z,99.90
2019-01-27T16:21:59.373Z,99.90
2019-01-27T16:24:29.738Z,99.90
2019-01-27T16:26:58.835Z,99.90
2019-01-27T16:29:29.622Z,99.90
2019-01-27T16:31:59.852Z,99.90
2019-01-27T16:34:30.739Z,99.90
2019-01-27T16:37:01.884Z,99.90
2019-01-27T16:39:30.723Z,99.90
2019-01-27T16:41:59.887Z,99.90
2019-01-27T16:44:32.987Z,99.90
2019-01-27T16:47:02.083Z,99.90
2019-01-27T16:49:31.317Z,99.90
2019-01-27T16:52:00.447Z,99.90
2019-01-27T16:54:29.637Z,99.90
2019-01-27T16:57:05.573Z,99.90
2019-01-27T16:59:29.716Z,99.90
2019-01-27T17:01:59.116Z,99.90
2019-01-27T17:04:28.306Z,99.90
2019-01-27T17:06:57.447Z,99.90
2019-01-27T17:09:26.564Z,99.90
2019-01-27T17:11:55.795Z,99.90
2019-01-27T17:14:24.900Z,99.90
2019-01-27T17:16:54.021Z,99.90
2019-01-27T17:19:23.142Z,99.90
2019-01-27T17:21:52.270Z,99.90
2019-01-27T17:24:21.371Z,99.90
2019-01-27T17:26:51.489Z,99.90
2019-01-27T17:29:20.623Z,99.90
2019-01-27T17:31:49.843Z,99.90
2019-01-27T17:34:18.937Z,99.90
2019-01-27T17:36:48.120Z,99.90
2019-01-27T17:39:17.241Z,99.90
2019-01-27T17:41:46.369Z,99.90
2019-01-27T17:44:15.480Z,99.90
2019-01-27T17:46:44.599Z,99.90
2019-01-27T17:49:13.741Z,99.90
2019-01-27T17:51:42.840Z,99.90
2019-01-27T17:54:11.963Z,99.90
2019-01-27T17:56:44.640Z,99.90
2019-01-27T17:59:15.379Z,99.90
2019-01-27T18:01:46.132Z,99.90
2019-01-27T18:04:17.874Z,99.90
2019-01-27T18:07:00.637Z,99.90
2019-01-27T18:09:40.571Z,99.90
2019-01-27T18:12:32.643Z,99.90
2019-01-27T18:22:42.320Z,99.90
2019-01-27T18:25:11.759Z,99.90
2019-01-27T18:27:41.012Z,99.90
2019-01-27T18:30:17.454Z,99.90
2019-01-27T18:32:47.521Z,99.90
2019-01-27T18:35:16.715Z,99.90
2019-01-27T18:37:45.858Z,99.90
2019-01-27T18:40:16.972Z,99.90
2019-01-27T18:42:46.107Z,99.90
2019-01-27T18:45:16.283Z,99.90
2019-01-27T18:47:45.463Z,99.90
2019-01-27T18:50:15.914Z,99.90
2019-01-27T18:52:49.694Z,99.90
2019-01-27T18:55:23.486Z,99.90
2019-01-27T18:58:03.348Z,99.90
2019-01-27T19:00:50.356Z,99.90
2019-01-27T19:06:32.937Z,99.90
2019-01-27T19:09:03.682Z,99.90
2019-01-27T19:11:36.066Z,99.90
2019-01-27T19:14:06.889Z,99.90
2019-01-27T19:16:37.718Z,99.90
2019-01-27T19:19:14.130Z,99.90
2019-01-27T19:22:03.508Z,99.90
2019-01-27T19:24:34.269Z,99.90
2019-01-27T19:27:21.216Z,99.90
2019-01-27T19:33:34.080Z,99.90
2019-01-27T19:53:20.023Z,99.90
2019-01-27T19:56:25.304Z,99.90
2019-01-27T20:05:21.662Z,99.90
2019-01-27T20:08:20.703Z,99.90
2019-01-27T20:11:26.886Z,99.90
2019-01-27T20:14:42.339Z,99.90
2019-01-27T20:17:13.078Z,99.90
2019-01-27T20:19:49.882Z,99.90
2019-01-27T20:22:23.333Z,99.90
2019-01-27T20:25:09.891Z,99.90
2019-01-27T20:27:40.628Z,99.90
2019-01-27T20:30:21.537Z,99.90
2019-01-27T20:33:08.456Z,99.90
2019-01-27T20:35:39.190Z,99.90
2019-01-27T20:38:21.658Z,99.90
2019-01-27T20:40:52.408Z,99.90
2019-01-27T20:43:42.204Z,99.90
2019-01-27T20:46:18.806Z,99.90
2019-01-27T20:49:00.908Z,99.90
2019-01-27T20:51:31.734Z,99.90
2019-01-27T20:54:02.500Z,99.90
2019-01-27T20:56:42.263Z,99.90
2019-01-27T20:59:15.696Z,99.90
2019-01-27T21:01:46.455Z,99.90
2019-01-27T21:04:19.936Z,99.90
2019-01-27T21:06:50.676Z,99.90
2019-01-27T21:09:25.929Z,99.90
2019-01-27T21:12:02.961Z,99.90
2019-01-27T21:14:39.702Z,99.90
2019-01-27T21:17:10.444Z,99.90
2019-01-27T21:19:43.189Z,99.90
2019-01-27T21:22:45.104Z,99.80
2019-01-27T21:25:14.233Z,99.80
2019-01-27T21:28:08.079Z,99.80
2019-01-27T21:30:23.123Z,99.80
2019-01-27T21:32:55.693Z,99.70
2019-01-27T21:35:31.929Z,99.70
2019-01-27T21:37:57.738Z,99.60
2019-01-27T21:40:26.831Z,99.30
2019-01-27T21:42:55.944Z,99.30
2019-01-27T21:45:26.274Z,99.20
2019-01-27T21:47:55.668Z,99.30
2019-01-27T21:50:24.820Z,99.20
2019-01-27T21:52:53.915Z,99.00
2019-01-27T21:55:23.047Z,99.00
2019-01-27T21:57:52.151Z,99.10
2019-01-27T22:00:21.710Z,99.30
2019-01-27T22:02:50.978Z,99.40
2019-01-27T22:05:30.768Z,99.50
2019-01-27T22:07:59.876Z,99.50
2019-01-27T22:10:28.992Z,99.60
2019-01-27T22:12:58.115Z,99.80
2019-01-27T22:15:27.280Z,99.90
2019-01-27T22:17:56.377Z,99.80
2019-01-27T22:20:25.488Z,99.80
2019-01-27T22:22:54.699Z,99.80
2019-01-27T22:25:26.769Z,99.60
2019-01-27T22:27:55.871Z,99.50
2019-01-27T22:30:25.059Z,99.30
2019-01-27T22:32:54.171Z,99.10
2019-01-27T22:35:23.292Z,99.00
2019-01-27T22:37:52.475Z,99.10
2019-01-27T22:40:21.609Z,99.00
2019-01-27T22:42:50.733Z,98.90
2019-01-27T22:45:19.875Z,98.70
2019-01-27T22:47:48.988Z,98.60
2019-01-27T22:50:18.257Z,98.60
2019-01-27T22:52:50.896Z,98.70
2019-01-27T22:55:19.994Z,98.70
2019-01-27T22:57:51.607Z,98.80
2019-01-27T23:00:25.388Z,98.80
2019-01-27T23:03:06.062Z,98.90
2019-01-27T23:05:36.157Z,98.80
2019-01-27T23:08:05.288Z,98.80
2019-01-27T23:10:35.149Z,98.90
2019-01-27T23:13:12.428Z,99.10
2019-01-27T23:15:43.302Z,99.10
2019-01-27T23:21:07.115Z,98.90
2019-01-27T23:23:36.659Z,98.70
2019-01-27T23:26:27.850Z,98.60
2019-01-27T23:28:57.034Z,98.70
2019-01-27T23:31:27.104Z,98.70
2019-01-27T23:33:56.219Z,98.70
2019-01-27T23:36:26.896Z,98.60
2019-01-27T23:38:56.084Z,98.70
2019-01-27T23:41:35.835Z,98.70
2019-01-27T23:44:03.808Z,98.50
2019-01-27T23:46:39.412Z,98.70
2019-01-27T23:49:05.503Z,98.50
2019-01-27T23:51:34.612Z,98.20
2019-01-27T23:54:03.738Z,97.90
2019-01-27T23:56:32.838Z,98.00
2019-01-27T23:59:04.764Z,97.90
